sensor_id;sensor_type;location;lat;lon;timestamp;temperature;humidity
7445;DHT22;3764;48.126;11.594;2024-01-15T00:01:25;-0.10;99.90
7445;DHT22;3764;48.126;11.594;2024-01-15T00:03:52;-0.10;99.90
7445;DHT22;3764;48.126;11.594;2024-01-15T00:06:19;0.00;99.90
7445;DHT22;3764;48.126;11.594;2024-01-15T00:08:46;0.00;99.90
7445;DHT22;3764;48.126;11.594;2024-01-15T00:11:14;0.10;99.90
7445;DHT22;3764;48.126;11.594;2024-01-15T00:13:41;0.20;99.90
7445;DHT22;3764;48.126;11.594;2024-01-15T00:16:08;0.10;99.90
7445;DHT22;3764;48.126;11.594;2024-01-15T00:18:37;0.10;99.90
7445;DHT22;3764;48.126;11.594;2024-01-15T00:21:05;0.20;99.90
7445;DHT22;3764;48.126;11.594;2024-01-15T00:23:32;0.20;99.90
7445;DHT22;3764;48.126;11.594;2024-01-15T00:25:59;0.30;99.90
7445;DHT22;3764;48.126;11.594;2024-01-15T00:28:26;0.30;99.90
7445;DHT22;3764;48.126;11.594;2024-01-15T00:30:54;0.30;99.90
7445;DHT22;3764;48.126;11.594;2024-01-15T00:33:21;0.30;99.90
7445;DHT22;3764;48.126;11.594;2024-01-15T00:35:50;0.30;99.90
7445;DHT22;3764;48.126;11.594;2024-01-15T00:38:17;0.30;99.90
7445;DHT22;3764;48.126;11.594;2024-01-15T00:40:44;0.40;99.90
7445;DHT22;3764;48.126;11.594;2024-01-15T00:43:12;0.40;99.90
7445;DHT22;3764;48.126;11.594;2024-01-15T00:45:39;0.40;99.90
7445;DHT22;3764;48.126;11.594;2024-01-15T00:48:07;0.40;99.90
7445;DHT22;3764;48.126;11.594;2024-01-15T00:50:34;0.50;99.90
7445;DHT22;3764;48.126;11.594;2024-01-15T00:53:03;0.50;99.90
7445;DHT22;3764;48.126;11.594;2024-01-15T00:55:31;0.50;99.90
7445;DHT22;3764;48.126;11.594;2024-01-15T00:57:58;0.50;99.90
7445;DHT22;3764;48.126;11.594;2024-01-15T01:00:25;0.40;99.90
7445;DHT22;3764;48.126;11.594;2024-01-15T01:02:52;0.40;99.90
7445;DHT22;3764;48.126;11.594;2024-01-15T01:05:20;0.40;99.90
7445;DHT22;3764;48.126;11.594;2024-01-15T01:07:47;0.40;99.90
7445;DHT22;3764;48.126;11.594;2024-01-15T01:10:16;0.40;99.90
7445;DHT22;3764;48.126;11.594;2024-01-15T01:12:44;0.40;99.90
7445;DHT22;3764;48.126;11.594;2024-01-15T01:15:11;0.30;99.90
7445;DHT22;3764;48.126;11.594;2024-01-15T01:17:38;0.20;99.90
7445;DHT22;3764;48.126;11.594;2024-01-15T01:20:07;0.10;99.90
7445;DHT22;3764;48.126;11.594;2024-01-15T01:22:36;0.10;99.90
7445;DHT22;3764;48.126;11.594;2024-01-15T01:25:04;0.00;99.90
7445;DHT22;3764;48.126;11.594;2024-01-15T01:27:33;0.00;99.90
7445;DHT22;3764;48.126;11.594;2024-01-15T01:30:00;0.00;99.90
7445;DHT22;3764;48.126;11.594;2024-01-15T01:32:27;-0.10;99.90
7445;DHT22;3764;48.126;11.594;2024-01-15T01:34:55;-0.10;99.90
7445;DHT22;3764;48.126;11.594;2024-01-15T01:37:22;-0.20;99.90
7445;DHT22;3764;48.126;11.594;2024-01-15T01:39:49;-0.20;99.90
7445;DHT22;3764;48.126;11.594;2024-01-15T01:42:16;-0.20;99.90
7445;DHT22;3764;48.126;11.594;2024-01-15T01:44:45;-0.20;99.90
7445;DHT22;3764;48.126;11.594;2024-01-15T01:47:13;-0.30;99.90
7445;DHT22;3764;48.126;11.594;2024-01-15T01:49:41;-0.30;99.90
7445;DHT22;3764;48.126;11.594;2024-01-15T01:52:09;-0.30;99.90
7445;DHT22;3764;48.126;11.594;2024-01-15T01:54:38;-0.30;99.90
7445;DHT22;3764;48.126;11.594;2024-01-15T01:57:07;-0.30;99.90
7445;DHT22;3764;48.126;11.594;2024-01-15T01:59:35;-0.30;99.90
7445;DHT22;3764;48.126;11.594;2024-01-15T02:02:04;-0.30;99.90
7445;DHT22;3764;48.126;11.594;2024-01-15T02:04:33;-0.40;99.90
7445;DHT22;3764;48.126;11.594;2024-01-15T02:07:01;-0.40;99.90
7445;DHT22;3764;48.126;11.594;2024-01-15T02:09:28;-0.40;99.90
7445;DHT22;3764;48.126;11.594;2024-01-15T02:11:56;-0.40;99.90
7445;DHT22;3764;48.126;11.594;2024-01-15T02:14:23;-0.40;99.90
7445;DHT22;3764;48.126;11.594;2024-01-15T02:16:50;-0.40;99.90
7445;DHT22;3764;48.126;11.594;2024-01-15T02:19:19;-0.40;99.90
7445;DHT22;3764;48.126;11.594;2024-01-15T02:21:46;-0.40;99.90
7445;DHT22;3764;48.126;11.594;2024-01-15T02:24:15;-0.40;99.90
7445;DHT22;3764;48.126;11.594;2024-01-15T02:26:43;-0.40;99.90
7445;DHT22;3764;48.126;11.594;2024-01-15T02:29:10;-0.50;99.90
7445;DHT22;3764;48.126;11.594;2024-01-15T02:31:38;-0.50;99.90
7445;DHT22;3764;48.126;11.594;2024-01-15T02:34:06;-0.50;99.90
7445;DHT22;3764;48.126;11.594;2024-01-15T02:36:33;-0.50;99.90
7445;DHT22;3764;48.126;11.594;2024-01-15T02:39:00;-0.50;99.90
7445;DHT22;3764;48.126;11.594;2024-01-15T02:41:29;-0.50;99.90
7445;DHT22;3764;48.126;11.594;2024-01-15T02:43:56;-0.50;99.90
7445;DHT22;3764;48.126;11.594;2024-01-15T02:46:24;-0.60;99.90
7445;DHT22;3764;48.126;11.594;2024-01-15T02:48:51;-0.50;99.90
7445;DHT22;3764;48.126;11.594;2024-01-15T02:51:18;-0.60;99.90
7445;DHT22;3764;48.126;11.594;2024-01-15T02:53:45;-0.60;99.90
7445;DHT22;3764;48.126;11.594;2024-01-15T02:56:13;-0.60;99.90
7445;DHT22;3764;48.126;11.594;2024-01-15T02:58:41;-0.60;99.90
7445;DHT22;3764;48.126;11.594;2024-01-15T03:01:09;-0.60;99.90
7445;DHT22;3764;48.126;11.594;2024-01-15T03:03:36;-0.60;99.90
7445;DHT22;3764;48.126;11.594;2024-01-15T03:06:04;-0.70;99.90
7445;DHT22;3764;48.126;11.594;2024-01-15T03:08:31;-0.70;99.90
7445;DHT22;3764;48.126;11.594;2024-01-15T03:10:58;-0.70;99.90
7445;DHT22;3764;48.126;11.594;2024-01-15T03:13:26;-0.70;99.90
7445;DHT22;3764;48.126;11.594;2024-01-15T03:16:01;-0.70;99.90
7445;DHT22;3764;48.126;11.594;2024-01-15T03:18:28;-0.70;99.90
7445;DHT22;3764;48.126;11.594;2024-01-15T03:20:56;-0.70;99.90
7445;DHT22;3764;48.126;11.594;2024-01-15T03:23:23;-0.70;99.90
7445;DHT22;3764;48.126;11.594;2024-01-15T03:25:50;-0.70;99.90
7445;DHT22;3764;48.126;11.594;2024-01-15T03:28:17;-0.70;99.90
7445;DHT22;3764;48.126;11.594;2024-01-15T03:30:45;-0.70;99.90
7445;DHT22;3764;48.126;11.594;2024-01-15T03:33:14;-0.70;99.90
7445;DHT22;3764;48.126;11.594;2024-01-15T03:35:41;-0.70;99.90
7445;DHT22;3764;48.126;11.594;2024-01-15T03:38:08;-0.70;99.90
7445;DHT22;3764;48.126;11.594;2024-01-15T03:40:34;-0.70;99.90
7445;DHT22;3764;48.126;11.594;2024-01-15T03:43:02;-0.70;99.90
7445;DHT22;3764;48.126;11.594;2024-01-15T03:45:29;-0.70;99.90
7445;DHT22;3764;48.126;11.594;2024-01-15T03:47:57;-0.60;99.90
7445;DHT22;3764;48.126;11.594;2024-01-15T03:50:25;-0.60;99.90
7445;DHT22;3764;48.126;11.594;2024-01-15T03:52:53;-0.60;99.90
7445;DHT22;3764;48.126;11.594;2024-01-15T03:55:20;-0.60;99.90
7445;DHT22;3764;48.126;11.594;2024-01-15T03:57:47;-0.70;99.90
7445;DHT22;3764;48.126;11.594;2024-01-15T04:00:15;-0.70;99.90
7445;DHT22;3764;48.126;11.594;2024-01-15T04:02:43;-0.70;99.90
7445;DHT22;3764;48.126;11.594;2024-01-15T04:05:11;-0.70;99.90
7445;DHT22;3764;48.126;11.594;2024-01-15T04:07:39;-0.60;99.90
7445;DHT22;3764;48.126;11.594;2024-01-15T04:10:07;-0.70;99.90
7445;DHT22;3764;48.126;11.594;2024-01-15T04:12:35;-0.70;99.90
7445;DHT22;3764;48.126;11.594;2024-01-15T04:15:02;-0.70;99.90
7445;DHT22;3764;48.126;11.594;2024-01-15T04:17:29;-0.80;99.90
7445;DHT22;3764;48.126;11.594;2024-01-15T04:19:57;-0.70;99.90
7445;DHT22;3764;48.126;11.594;2024-01-15T04:22:25;-0.80;99.90
7445;DHT22;3764;48.126;11.594;2024-01-15T04:24:54;-0.80;99.90
7445;DHT22;3764;48.126;11.594;2024-01-15T04:27:21;-0.80;99.90
7445;DHT22;3764;48.126;11.594;2024-01-15T04:29:48;-0.70;99.90
7445;DHT22;3764;48.126;11.594;2024-01-15T04:32:16;-0.70;99.90
7445;DHT22;3764;48.126;11.594;2024-01-15T04:34:43;-0.70;99.90
7445;DHT22;3764;48.126;11.594;2024-01-15T04:37:10;-0.70;99.90
7445;DHT22;3764;48.126;11.594;2024-01-15T04:39:38;-0.70;99.90
7445;DHT22;3764;48.126;11.594;2024-01-15T04:42:06;-0.70;99.90
7445;DHT22;3764;48.126;11.594;2024-01-15T04:44:34;-0.60;99.90
7445;DHT22;3764;48.126;11.594;2024-01-15T04:47:01;-0.70;99.90
7445;DHT22;3764;48.126;11.594;2024-01-15T04:49:28;-0.70;99.90
7445;DHT22;3764;48.126;11.594;2024-01-15T04:51:55;-0.70;99.90
7445;DHT22;3764;48.126;11.594;2024-01-15T04:54:23;-0.80;99.90
7445;DHT22;3764;48.126;11.594;2024-01-15T04:56:50;-0.70;99.90
7445;DHT22;3764;48.126;11.594;2024-01-15T04:59:19;-0.70;99.90
7445;DHT22;3764;48.126;11.594;2024-01-15T05:01:46;-0.70;99.90
7445;DHT22;3764;48.126;11.594;2024-01-15T05:04:14;-0.70;99.90
7445;DHT22;3764;48.126;11.594;2024-01-15T05:06:42;-0.70;99.90
7445;DHT22;3764;48.126;11.594;2024-01-15T05:09:09;-0.70;99.90
7445;DHT22;3764;48.126;11.594;2024-01-15T05:11:36;-0.70;99.90
7445;DHT22;3764;48.126;11.594;2024-01-15T05:14:03;-0.70;99.90
7445;DHT22;3764;48.126;11.594;2024-01-15T05:16:32;-0.70;99.90
7445;DHT22;3764;48.126;11.594;2024-01-15T05:18:59;-0.70;99.90
7445;DHT22;3764;48.126;11.594;2024-01-15T05:21:27;-0.70;99.90
7445;DHT22;3764;48.126;11.594;2024-01-15T05:23:54;-0.70;99.90
7445;DHT22;3764;48.126;11.594;2024-01-15T05:26:21;-0.70;99.90
7445;DHT22;3764;48.126;11.594;2024-01-15T05:28:48;-0.70;99.90
7445;DHT22;3764;48.126;11.594;2024-01-15T05:31:16;-0.70;99.90
7445;DHT22;3764;48.126;11.594;2024-01-15T05:33:44;-0.60;99.90
7445;DHT22;3764;48.126;11.594;2024-01-15T05:36:12;-0.60;99.90
7445;DHT22;3764;48.126;11.594;2024-01-15T05:38:39;-0.60;99.90
7445;DHT22;3764;48.126;11.594;2024-01-15T05:41:07;-0.60;99.90
7445;DHT22;3764;48.126;11.594;2024-01-15T05:43:34;-0.70;99.90
7445;DHT22;3764;48.126;11.594;2024-01-15T05:46:02;-0.70;99.90
7445;DHT22;3764;48.126;11.594;2024-01-15T05:48:29;-0.70;99.90
7445;DHT22;3764;48.126;11.594;2024-01-15T05:50:58;-0.70;99.90
7445;DHT22;3764;48.126;11.594;2024-01-15T05:53:25;-0.70;99.90
7445;DHT22;3764;48.126;11.594;2024-01-15T05:55:52;-0.70;99.90
7445;DHT22;3764;48.126;11.594;2024-01-15T05:58:21;-0.70;99.90
7445;DHT22;3764;48.126;11.594;2024-01-15T06:00:49;-0.70;99.90
7445;DHT22;3764;48.126;11.594;2024-01-15T06:03:16;-0.70;99.90
7445;DHT22;3764;48.126;11.594;2024-01-15T06:05:44;-0.60;99.90
7445;DHT22;3764;48.126;11.594;2024-01-15T06:08:12;-0.60;99.90
7445;DHT22;3764;48.126;11.594;2024-01-15T06:10:40;-0.60;99.90
7445;DHT22;3764;48.126;11.594;2024-01-15T06:13:07;-0.70;99.90
7445;DHT22;3764;48.126;11.594;2024-01-15T06:15:35;-0.70;99.90
7445;DHT22;3764;48.126;11.594;2024-01-15T06:18:02;-0.70;99.90
7445;DHT22;3764;48.126;11.594;2024-01-15T06:20:29;-0.70;99.90
7445;DHT22;3764;48.126;11.594;2024-01-15T06:22:57;-0.70;99.90
7445;DHT22;3764;48.126;11.594;2024-01-15T06:25:25;-0.70;99.90
7445;DHT22;3764;48.126;11.594;2024-01-15T06:27:53;-0.70;99.90
7445;DHT22;3764;48.126;11.594;2024-01-15T06:30:20;-0.70;99.90
7445;DHT22;3764;48.126;11.594;2024-01-15T06:32:47;-0.70;99.90
7445;DHT22;3764;48.126;11.594;2024-01-15T06:35:16;-0.70;99.90
7445;DHT22;3764;48.126;11.594;2024-01-15T06:37:43;-0.70;99.90
7445;DHT22;3764;48.126;11.594;2024-01-15T06:40:11;-0.60;99.90
7445;DHT22;3764;48.126;11.594;2024-01-15T06:42:39;-0.60;99.90
7445;DHT22;3764;48.126;11.594;2024-01-15T06:45:08;-0.60;99.90
7445;DHT22;3764;48.126;11.594;2024-01-15T06:47:35;-0.60;99.90
7445;DHT22;3764;48.126;11.594;2024-01-15T06:50:03;-0.70;99.90
7445;DHT22;3764;48.126;11.594;2024-01-15T06:52:32;-0.70;99.90
7445;DHT22;3764;48.126;11.594;2024-01-15T06:55:00;-0.70;99.90
7445;DHT22;3764;48.126;11.594;2024-01-15T06:57:27;-0.70;99.90
7445;DHT22;3764;48.126;11.594;2024-01-15T06:59:56;-0.60;99.90
7445;DHT22;3764;48.126;11.594;2024-01-15T07:02:23;-0.60;99.90
7445;DHT22;3764;48.126;11.594;2024-01-15T07:04:50;-0.60;99.90
7445;DHT22;3764;48.126;11.594;2024-01-15T07:07:18;-0.60;99.90
7445;DHT22;3764;48.126;11.594;2024-01-15T07:09:45;-0.60;99.90
7445;DHT22;3764;48.126;11.594;2024-01-15T07:12:12;-0.60;99.90
7445;DHT22;3764;48.126;11.594;2024-01-15T07:14:39;-0.60;99.90
7445;DHT22;3764;48.126;11.594;2024-01-15T07:17:08;-0.60;99.90
7445;DHT22;3764;48.126;11.594;2024-01-15T07:19:35;-0.60;99.90
7445;DHT22;3764;48.126;11.594;2024-01-15T07:22:03;-0.60;99.90
7445;DHT22;3764;48.126;11.594;2024-01-15T07:24:30;-0.60;99.90
7445;DHT22;3764;48.126;11.594;2024-01-15T07:27:00;-0.60;99.90
7445;DHT22;3764;48.126;11.594;2024-01-15T07:29:27;-0.60;99.90
7445;DHT22;3764;48.126;11.594;2024-01-15T07:31:54;-0.60;99.90
7445;DHT22;3764;48.126;11.594;2024-01-15T07:34:23;-0.60;99.90
7445;DHT22;3764;48.126;11.594;2024-01-15T07:36:50;-0.70;99.90
7445;DHT22;3764;48.126;11.594;2024-01-15T07:39:18;-0.70;99.90
7445;DHT22;3764;48.126;11.594;2024-01-15T07:41:45;-0.70;99.90
7445;DHT22;3764;48.126;11.594;2024-01-15T07:44:13;-0.70;99.90
7445;DHT22;3764;48.126;11.594;2024-01-15T07:46:44;-0.70;99.90
7445;DHT22;3764;48.126;11.594;2024-01-15T07:49:11;-0.60;99.90
7445;DHT22;3764;48.126;11.594;2024-01-15T07:51:40;-0.60;99.90
7445;DHT22;3764;48.126;11.594;2024-01-15T07:54:09;-0.60;99.90
7445;DHT22;3764;48.126;11.594;2024-01-15T07:56:55;-0.60;99.90
7445;DHT22;3764;48.126;11.594;2024-01-15T07:59:23;-0.50;99.90
7445;DHT22;3764;48.126;11.594;2024-01-15T08:01:51;-0.50;99.90
7445;DHT22;3764;48.126;11.594;2024-01-15T08:04:19;-0.50;99.90
7445;DHT22;3764;48.126;11.594;2024-01-15T08:06:49;-0.60;99.90
7445;DHT22;3764;48.126;11.594;2024-01-15T08:09:16;-0.60;99.90
7445;DHT22;3764;48.126;11.594;2024-01-15T08:11:43;-0.50;99.90
7445;DHT22;3764;48.126;11.594;2024-01-15T08:14:11;-0.50;99.90
7445;DHT22;3764;48.126;11.594;2024-01-15T08:16:39;-0.50;99.90
7445;DHT22;3764;48.126;11.594;2024-01-15T08:19:07;-0.60;99.90
7445;DHT22;3764;48.126;11.594;2024-01-15T08:21:34;-0.60;99.90
7445;DHT22;3764;48.126;11.594;2024-01-15T08:24:03;-0.60;99.90
7445;DHT22;3764;48.126;11.594;2024-01-15T08:26:31;-0.60;99.90
7445;DHT22;3764;48.126;11.594;2024-01-15T08:28:59;-0.50;99.90
7445;DHT22;3764;48.126;11.594;2024-01-15T08:31:26;-0.50;99.90
7445;DHT22;3764;48.126;11.594;2024-01-15T08:33:54;-0.50;99.90
7445;DHT22;3764;48.126;11.594;2024-01-15T08:36:21;-0.50;99.90
7445;DHT22;3764;48.126;11.594;2024-01-15T08:38:50;-0.50;99.90
7445;DHT22;3764;48.126;11.594;2024-01-15T08:41:18;-0.40;99.90
7445;DHT22;3764;48.126;11.594;2024-01-15T08:43:46;-0.40;99.90
7445;DHT22;3764;48.126;11.594;2024-01-15T08:46:13;-0.50;99.90
7445;DHT22;3764;48.126;11.594;2024-01-15T08:48:40;-0.40;99.90
7445;DHT22;3764;48.126;11.594;2024-01-15T08:51:08;-0.40;99.90
7445;DHT22;3764;48.126;11.594;2024-01-15T08:53:35;-0.30;99.90
7445;DHT22;3764;48.126;11.594;2024-01-15T08:56:03;-0.30;99.90
7445;DHT22;3764;48.126;11.594;2024-01-15T08:58:31;-0.30;99.90
7445;DHT22;3764;48.126;11.594;2024-01-15T09:00:59;-0.30;99.90
7445;DHT22;3764;48.126;11.594;2024-01-15T09:03:26;-0.30;99.90
7445;DHT22;3764;48.126;11.594;2024-01-15T09:05:54;-0.30;99.90
7445;DHT22;3764;48.126;11.594;2024-01-15T09:08:22;-0.30;99.90
7445;DHT22;3764;48.126;11.594;2024-01-15T09:10:49;-0.30;99.90
7445;DHT22;3764;48.126;11.594;2024-01-15T09:13:17;-0.30;99.90
7445;DHT22;3764;48.126;11.594;2024-01-15T09:15:45;-0.30;99.90
7445;DHT22;3764;48.126;11.594;2024-01-15T09:18:13;-0.30;99.90
7445;DHT22;3764;48.126;11.594;2024-01-15T09:20:40;-0.20;99.90
7445;DHT22;3764;48.126;11.594;2024-01-15T09:23:07;-0.20;99.90
7445;DHT22;3764;48.126;11.594;2024-01-15T09:25:35;-0.20;99.90
7445;DHT22;3764;48.126;11.594;2024-01-15T09:28:02;-0.20;99.90
7445;DHT22;3764;48.126;11.594;2024-01-15T09:30:30;-0.20;99.90
7445;DHT22;3764;48.126;11.594;2024-01-15T09:32:59;-0.10;99.90
7445;DHT22;3764;48.126;11.594;2024-01-15T09:35:26;-0.10;99.90
7445;DHT22;3764;48.126;11.594;2024-01-15T09:37:53;-0.20;99.90
7445;DHT22;3764;48.126;11.594;2024-01-15T09:40:21;-0.20;99.90
7445;DHT22;3764;48.126;11.594;2024-01-15T09:42:50;-0.10;99.90
7445;DHT22;3764;48.126;11.594;2024-01-15T09:45:18;-0.10;99.90
7445;DHT22;3764;48.126;11.594;2024-01-15T09:47:45;-0.10;99.90
7445;DHT22;3764;48.126;11.594;2024-01-15T09:50:15;0.00;99.90
7445;DHT22;3764;48.126;11.594;2024-01-15T09:52:43;0.00;99.90
7445;DHT22;3764;48.126;11.594;2024-01-15T09:55:10;-0.10;99.90
7445;DHT22;3764;48.126;11.594;2024-01-15T09:57:39;0.00;99.90
7445;DHT22;3764;48.126;11.594;2024-01-15T10:00:08;0.10;99.90
7445;DHT22;3764;48.126;11.594;2024-01-15T10:02:37;0.10;99.90
7445;DHT22;3764;48.126;11.594;2024-01-15T10:05:05;0.10;99.90
7445;DHT22;3764;48.126;11.594;2024-01-15T10:07:35;0.10;99.90
7445;DHT22;3764;48.126;11.594;2024-01-15T10:10:04;0.10;99.90
7445;DHT22;3764;48.126;11.594;2024-01-15T10:12:33;0.10;99.90
7445;DHT22;3764;48.126;11.594;2024-01-15T10:15:01;0.10;99.90
7445;DHT22;3764;48.126;11.594;2024-01-15T10:17:30;0.20;99.90
7445;DHT22;3764;48.126;11.594;2024-01-15T10:19:58;0.20;99.90
7445;DHT22;3764;48.126;11.594;2024-01-15T10:22:26;0.20;99.90
7445;DHT22;3764;48.126;11.594;2024-01-15T10:24:55;0.20;99.90
7445;DHT22;3764;48.126;11.594;2024-01-15T10:27:23;0.20;99.90
7445;DHT22;3764;48.126;11.594;2024-01-15T10:29:50;0.20;99.90
7445;DHT22;3764;48.126;11.594;2024-01-15T10:32:19;0.20;99.90
7445;DHT22;3764;48.126;11.594;2024-01-15T10:34:52;0.20;99.90
7445;DHT22;3764;48.126;11.594;2024-01-15T10:37:20;0.20;99.90
7445;DHT22;3764;48.126;11.594;2024-01-15T10:39:47;0.20;99.90
7445;DHT22;3764;48.126;11.594;2024-01-15T10:42:16;0.20;99.90
7445;DHT22;3764;48.126;11.594;2024-01-15T10:44:44;0.20;99.90
7445;DHT22;3764;48.126;11.594;2024-01-15T10:47:12;0.10;99.90
7445;DHT22;3764;48.126;11.594;2024-01-15T10:49:40;0.20;99.90
7445;DHT22;3764;48.126;11.594;2024-01-15T10:52:07;0.30;99.90
7445;DHT22;3764;48.126;11.594;2024-01-15T10:54:37;0.30;99.90
7445;DHT22;3764;48.126;11.594;2024-01-15T10:57:04;0.30;99.90
7445;DHT22;3764;48.126;11.594;2024-01-15T10:59:34;0.30;99.90
7445;DHT22;3764;48.126;11.594;2024-01-15T11:02:04;0.30;99.90
7445;DHT22;3764;48.126;11.594;2024-01-15T11:04:32;0.30;99.90
7445;DHT22;3764;48.126;11.594;2024-01-15T11:07:01;0.30;99.90
7445;DHT22;3764;48.126;11.594;2024-01-15T11:09:29;0.30;99.90
7445;DHT22;3764;48.126;11.594;2024-01-15T11:12:07;0.30;99.90
7445;DHT22;3764;48.126;11.594;2024-01-15T11:14:39;0.30;99.90
7445;DHT22;3764;48.126;11.594;2024-01-15T11:17:09;0.30;99.90
7445;DHT22;3764;48.126;11.594;2024-01-15T11:19:37;0.40;99.90
7445;DHT22;3764;48.126;11.594;2024-01-15T11:22:08;0.40;99.90
7445;DHT22;3764;48.126;11.594;2024-01-15T11:24:36;0.40;99.90
7445;DHT22;3764;48.126;11.594;2024-01-15T11:27:04;0.40;99.90
7445;DHT22;3764;48.126;11.594;2024-01-15T11:29:32;0.50;99.90
7445;DHT22;3764;48.126;11.594;2024-01-15T11:32:04;0.50;99.90
7445;DHT22;3764;48.126;11.594;2024-01-15T11:34:50;0.50;99.90
7445;DHT22;3764;48.126;11.594;2024-01-15T11:37:17;0.60;99.90
7445;DHT22;3764;48.126;11.594;2024-01-15T11:39:45;0.60;99.90
7445;DHT22;3764;48.126;11.594;2024-01-15T11:42:14;0.60;99.90
7445;DHT22;3764;48.126;11.594;2024-01-15T11:44:41;0.70;99.90
7445;DHT22;3764;48.126;11.594;2024-01-15T11:47:11;0.60;99.90
7445;DHT22;3764;48.126;11.594;2024-01-15T11:50:00;0.60;99.90
7445;DHT22;3764;48.126;11.594;2024-01-15T11:52:33;0.60;99.90
7445;DHT22;3764;48.126;11.594;2024-01-15T11:55:06;0.60;99.90
7445;DHT22;3764;48.126;11.594;2024-01-15T11:57:41;0.60;99.90
7445;DHT22;3764;48.126;11.594;2024-01-15T12:00:10;0.60;99.90
7445;DHT22;3764;48.126;11.594;2024-01-15T12:02:39;0.50;99.90
7445;DHT22;3764;48.126;11.594;2024-01-15T12:05:08;0.50;99.90
7445;DHT22;3764;48.126;11.594;2024-01-15T12:07:35;0.50;99.90
7445;DHT22;3764;48.126;11.594;2024-01-15T12:10:08;0.50;99.90
7445;DHT22;3764;48.126;11.594;2024-01-15T12:12:45;0.50;99.90
7445;DHT22;3764;48.126;11.594;2024-01-15T12:15:14;0.50;99.90
7445;DHT22;3764;48.126;11.594;2024-01-15T12:17:43;0.50;99.90
7445;DHT22;3764;48.126;11.594;2024-01-15T12:20:13;0.50;99.90
7445;DHT22;3764;48.126;11.594;2024-01-15T12:22:41;0.50;99.90
7445;DHT22;3764;48.126;11.594;2024-01-15T12:25:09;0.50;99.90
7445;DHT22;3764;48.126;11.594;2024-01-15T12:27:37;0.50;99.90
7445;DHT22;3764;48.126;11.594;2024-01-15T12:30:06;0.50;99.90
7445;DHT22;3764;48.126;11.594;2024-01-15T12:32:34;0.50;99.90
7445;DHT22;3764;48.126;11.594;2024-01-15T12:35:05;0.50;99.90
7445;DHT22;3764;48.126;11.594;2024-01-15T12:37:32;0.50;99.90
7445;DHT22;3764;48.126;11.594;2024-01-15T12:40:02;0.40;99.90
7445;DHT22;3764;48.126;11.594;2024-01-15T12:42:30;0.40;99.90
7445;DHT22;3764;48.126;11.594;2024-01-15T12:44:57;0.40;99.90
7445;DHT22;3764;48.126;11.594;2024-01-15T12:47:25;0.40;99.90
7445;DHT22;3764;48.126;11.594;2024-01-15T12:49:52;0.40;99.90
7445;DHT22;3764;48.126;11.594;2024-01-15T12:52:22;0.40;99.90
7445;DHT22;3764;48.126;11.594;2024-01-15T12:54:49;0.40;99.90
7445;DHT22;3764;48.126;11.594;2024-01-15T12:57:17;0.40;99.90
7445;DHT22;3764;48.126;11.594;2024-01-15T12:59:45;0.40;99.90
7445;DHT22;3764;48.126;11.594;2024-01-15T13:02:12;0.50;99.90
7445;DHT22;3764;48.126;11.594;2024-01-15T13:04:40;0.50;99.90
7445;DHT22;3764;48.126;11.594;2024-01-15T13:07:07;0.60;99.90
7445;DHT22;3764;48.126;11.594;2024-01-15T13:09:36;0.70;99.90
7445;DHT22;3764;48.126;11.594;2024-01-15T13:12:05;0.70;99.90
7445;DHT22;3764;48.126;11.594;2024-01-15T13:14:32;0.80;99.90
7445;DHT22;3764;48.126;11.594;2024-01-15T13:17:00;0.90;99.90
7445;DHT22;3764;48.126;11.594;2024-01-15T13:19:27;0.90;99.90
7445;DHT22;3764;48.126;11.594;2024-01-15T13:21:55;1.00;99.90
7445;DHT22;3764;48.126;11.594;2024-01-15T13:24:24;1.00;99.90
7445;DHT22;3764;48.126;11.594;2024-01-15T13:26:53;1.10;99.90
7445;DHT22;3764;48.126;11.594;2024-01-15T13:29:20;1.10;99.90
7445;DHT22;3764;48.126;11.594;2024-01-15T13:31:48;1.10;99.90
7445;DHT22;3764;48.126;11.594;2024-01-15T13:34:15;1.10;99.90
7445;DHT22;3764;48.126;11.594;2024-01-15T13:36:43;1.10;99.90
7445;DHT22;3764;48.126;11.594;2024-01-15T13:39:10;1.10;99.90
7445;DHT22;3764;48.126;11.594;2024-01-15T13:41:38;1.10;99.90
7445;DHT22;3764;48.126;11.594;2024-01-15T13:44:07;1.20;99.90
7445;DHT22;3764;48.126;11.594;2024-01-15T13:46:36;1.20;99.90
7445;DHT22;3764;48.126;11.594;2024-01-15T13:49:04;1.20;99.90
7445;DHT22;3764;48.126;11.594;2024-01-15T13:51:31;1.30;99.90
7445;DHT22;3764;48.126;11.594;2024-01-15T13:53:59;1.20;99.90
7445;DHT22;3764;48.126;11.594;2024-01-15T13:56:26;1.20;99.90
7445;DHT22;3764;48.126;11.594;2024-01-15T13:58:58;1.10;99.90
7445;DHT22;3764;48.126;11.594;2024-01-15T14:01:27;1.10;99.90
7445;DHT22;3764;48.126;11.594;2024-01-15T14:03:54;1.10;99.90
7445;DHT22;3764;48.126;11.594;2024-01-15T14:06:22;1.20;99.90
7445;DHT22;3764;48.126;11.594;2024-01-15T14:08:50;1.20;99.90
7445;DHT22;3764;48.126;11.594;2024-01-15T14:11:18;1.20;99.90
7445;DHT22;3764;48.126;11.594;2024-01-15T14:13:45;1.20;99.90
7445;DHT22;3764;48.126;11.594;2024-01-15T14:16:13;1.10;99.90
7445;DHT22;3764;48.126;11.594;2024-01-15T14:18:42;1.10;99.90
7445;DHT22;3764;48.126;11.594;2024-01-15T14:21:09;1.10;99.90
7445;DHT22;3764;48.126;11.594;2024-01-15T14:23:36;1.00;99.90
7445;DHT22;3764;48.126;11.594;2024-01-15T14:26:04;1.10;99.90
7445;DHT22;3764;48.126;11.594;2024-01-15T14:28:31;1.00;99.90
7445;DHT22;3764;48.126;11.594;2024-01-15T14:30:59;1.00;99.90
7445;DHT22;3764;48.126;11.594;2024-01-15T14:33:26;1.00;99.90
7445;DHT22;3764;48.126;11.594;2024-01-15T14:35:55;1.00;99.90
7445;DHT22;3764;48.126;11.594;2024-01-15T14:38:22;1.00;99.90
7445;DHT22;3764;48.126;11.594;2024-01-15T14:40:50;1.00;99.90
7445;DHT22;3764;48.126;11.594;2024-01-15T14:43:17;1.00;99.90
7445;DHT22;3764;48.126;11.594;2024-01-15T14:45:45;0.90;99.90
7445;DHT22;3764;48.126;11.594;2024-01-15T14:48:13;0.90;99.90
7445;DHT22;3764;48.126;11.594;2024-01-15T14:50:40;0.90;99.90
7445;DHT22;3764;48.126;11.594;2024-01-15T14:53:09;0.80;99.90
7445;DHT22;3764;48.126;11.594;2024-01-15T14:55:36;0.70;99.90
7445;DHT22;3764;48.126;11.594;2024-01-15T14:58:04;0.70;99.90
7445;DHT22;3764;48.126;11.594;2024-01-15T15:00:31;0.70;99.90
7445;DHT22;3764;48.126;11.594;2024-01-15T15:02:58;0.70;99.90
7445;DHT22;3764;48.126;11.594;2024-01-15T15:05:26;0.60;99.90
7445;DHT22;3764;48.126;11.594;2024-01-15T15:07:53;0.60;99.90
7445;DHT22;3764;48.126;11.594;2024-01-15T15:10:22;0.70;99.90
7445;DHT22;3764;48.126;11.594;2024-01-15T15:12:49;0.70;99.90
7445;DHT22;3764;48.126;11.594;2024-01-15T15:15:17;0.70;99.90
7445;DHT22;3764;48.126;11.594;2024-01-15T15:17:44;0.80;99.90
7445;DHT22;3764;48.126;11.594;2024-01-15T15:20:12;0.80;99.90
7445;DHT22;3764;48.126;11.594;2024-01-15T15:22:39;0.80;99.90
7445;DHT22;3764;48.126;11.594;2024-01-15T15:25:07;0.80;99.90
7445;DHT22;3764;48.126;11.594;2024-01-15T15:27:36;0.70;99.90
7445;DHT22;3764;48.126;11.594;2024-01-15T15:30:06;0.80;99.90
7445;DHT22;3764;48.126;11.594;2024-01-15T15:32:35;0.70;99.90
7445;DHT22;3764;48.126;11.594;2024-01-15T15:35:03;0.80;99.90
7445;DHT22;3764;48.126;11.594;2024-01-15T15:37:32;0.80;99.90
7445;DHT22;3764;48.126;11.594;2024-01-15T15:39:59;0.80;99.90
7445;DHT22;3764;48.126;11.594;2024-01-15T15:42:26;0.70;99.90
7445;DHT22;3764;48.126;11.594;2024-01-15T15:44:55;0.70;99.90
7445;DHT22;3764;48.126;11.594;2024-01-15T15:47:23;0.70;99.90
7445;DHT22;3764;48.126;11.594;2024-01-15T15:49:50;0.80;99.90
7445;DHT22;3764;48.126;11.594;2024-01-15T15:52:18;0.80;99.90
7445;DHT22;3764;48.126;11.594;2024-01-15T15:54:45;0.80;99.90
7445;DHT22;3764;48.126;11.594;2024-01-15T15:57:12;0.70;99.90